Time;durP1;ratioP1;P1;durP2;ratioP2;P2;SDS_P1;SDS_P2;PMS_P1;PMS_P2;Temp;Humidity;BMP_temperature;BMP_pressure;BME280_temperature;BME280_humidity;BME280_pressure;Samples;Min_cycle;Max_cycle;Signal;HPM_P1;HPM_P2
2023/10/19 00:00:19;;;;;;;8.77;7.97;;;8.30;99.90;;;;;;5062353;28;20477;-63
2023/10/19 00:02:51;;;;;;;10.20;8.90;;;8.30;99.90;;;;;;5059699;28;20531;-65
2023/10/19 00:05:19;;;;;;;9.20;7.90;;;8.40;99.90;;;;;;5061796;28;20494;-65
2023/10/19 00:07:49;;;;;;;9.70;8.80;;;8.40;99.90;;;;;;5060860;28;20465;-65
2023/10/19 00:10:17;;;;;;;10.00;9.00;;;8.40;99.90;;;;;;5060306;28;20489;-65
2023/10/19 00:12:52;;;;;;;9.53;8.23;;;8.40;99.90;;;;;;5062499;28;20490;-63
2023/10/19 00:15:23;;;;;;;10.23;9.00;;;8.40;99.90;;;;;;5056229;28;20495;-64
2023/10/19 00:17:54;;;;;;;10.73;8.80;;;8.30;99.90;;;;;;5060716;28;20581;-65
2023/10/19 00:20:35;;;;;;;9.67;8.67;;;8.30;99.90;;;;;;5059218;28;20473;-64
2023/10/19 00:23:06;;;;;;;10.00;9.10;;;8.40;99.90;;;;;;5061193;28;20541;-64
2023/10/19 00:25:34;;;;;;;9.33;8.43;;;8.40;99.90;;;;;;5060174;28;20486;-64
2023/10/19 00:28:04;;;;;;;10.73;9.60;;;8.40;99.90;;;;;;5061202;28;20470;-64
2023/10/19 00:30:35;;;;;;;11.70;10.07;;;8.40;99.90;;;;;;5061066;28;20532;-64
2023/10/19 00:33:05;;;;;;;11.03;9.97;;;8.40;99.90;;;;;;5059642;28;20474;-64
2023/10/19 00:35:35;;;;;;;11.10;9.07;;;8.40;99.90;;;;;;5060089;28;20564;-64
2023/10/19 00:40:52;;;;;;;10.67;9.40;;;8.40;99.90;;;;;;5060388;28;20486;-64
2023/10/19 00:43:33;;;;;;;11.30;10.20;;;8.40;99.90;;;;;;5063044;28;20478;-64
2023/10/19 00:46:09;;;;;;;10.67;9.60;;;8.40;99.90;;;;;;5059101;28;20562;-64
2023/10/19 00:48:40;;;;;;;16.77;10.30;;;8.40;99.90;;;;;;5056871;28;20508;-65
2023/10/19 00:51:09;;;;;;;11.07;9.40;;;8.40;99.90;;;;;;5059007;28;20919;-65
2023/10/19 00:53:40;;;;;;;10.00;9.00;;;8.40;99.90;;;;;;5059062;28;20528;-65
2023/10/19 00:56:10;;;;;;;10.13;9.20;;;8.40;99.90;;;;;;5059122;28;20554;-64
2023/10/19 00:58:41;;;;;;;12.20;9.97;;;8.40;99.90;;;;;;5059442;28;20509;-64
2023/10/19 01:01:10;;;;;;;10.17;9.07;;;8.40;99.90;;;;;;5052520;28;20466;-63
2023/10/19 01:03:38;;;;;;;10.33;9.20;;;8.40;99.90;;;;;;5061498;28;20474;-65
2023/10/19 01:06:09;;;;;;;10.67;9.47;;;8.50;99.90;;;;;;5056503;28;20536;-65
2023/10/19 01:08:42;;;;;;;11.30;9.63;;;8.40;99.90;;;;;;5059004;28;20467;-64
2023/10/19 01:11:14;;;;;;;11.07;9.80;;;8.40;99.90;;;;;;5059209;28;21026;-65
2023/10/19 01:13:46;;;;;;;9.60;8.67;;;8.40;99.90;;;;;;5059155;28;20473;-65
2023/10/19 01:16:21;;;;;;;12.20;9.87;;;8.40;99.90;;;;;;5056560;28;21058;-64
2023/10/19 01:18:53;;;;;;;10.20;9.20;;;8.40;99.90;;;;;;5060932;28;20554;-62
2023/10/19 01:21:25;;;;;;;10.70;9.60;;;8.40;99.90;;;;;;5058404;28;20490;-63
2023/10/19 01:23:55;;;;;;;11.07;9.87;;;8.40;99.90;;;;;;5059056;28;20474;-64
2023/10/19 01:26:25;;;;;;;12.53;10.10;;;8.40;99.90;;;;;;5058349;28;20523;-64
2023/10/19 01:29:00;;;;;;;10.63;9.53;;;8.40;99.90;;;;;;5057795;28;20502;-64
2023/10/19 01:31:37;;;;;;;10.60;9.50;;;8.40;99.90;;;;;;5059050;28;21065;-64
2023/10/19 01:34:07;;;;;;;10.87;9.77;;;8.40;99.90;;;;;;5058069;28;20489;-64
2023/10/19 01:36:42;;;;;;;10.50;9.07;;;8.40;99.90;;;;;;5060712;28;20473;-65
2023/10/19 01:39:11;;;;;;;10.00;8.90;;;8.40;99.90;;;;;;5058380;28;20954;-64
2023/10/19 01:41:41;;;;;;;10.60;9.60;;;8.40;99.90;;;;;;5058683;28;20520;-65
2023/10/19 01:44:13;;;;;;;10.00;9.00;;;8.40;99.90;;;;;;5058259;28;20544;-64
2023/10/19 01:46:43;;;;;;;9.60;8.70;;;8.40;99.90;;;;;;5060256;28;20474;-64
2023/10/19 01:49:11;;;;;;;11.23;8.63;;;8.40;99.90;;;;;;5059538;28;20474;-64
2023/10/19 01:51:39;;;;;;;10.93;8.73;;;8.40;99.90;;;;;;5060340;28;20531;-64
2023/10/19 01:54:07;;;;;;;11.33;8.57;;;8.40;99.90;;;;;;5058486;28;20485;-65
2023/10/19 01:56:38;;;;;;;10.37;8.70;;;8.40;99.90;;;;;;5058303;28;20486;-63
2023/10/19 01:59:07;;;;;;;12.37;9.23;;;8.40;99.90;;;;;;5057848;28;20474;-64
2023/10/19 02:01:37;;;;;;;11.53;9.00;;;8.40;99.90;;;;;;5058534;28;20504;-64
2023/10/19 02:04:05;;;;;;;12.47;9.97;;;8.40;99.90;;;;;;5057225;28;20502;-64
2023/10/19 02:06:36;;;;;;;12.50;9.87;;;8.40;99.90;;;;;;5058583;28;20564;-64
2023/10/19 02:09:09;;;;;;;10.43;9.17;;;8.40;99.90;;;;;;5058415;28;20472;-64
2023/10/19 02:11:41;;;;;;;10.97;9.70;;;8.40;99.90;;;;;;5060139;28;21014;-64
2023/10/19 02:14:14;;;;;;;9.83;8.83;;;8.50;99.90;;;;;;5056760;28;20501;-62
2023/10/19 02:16:43;;;;;;;9.90;8.90;;;8.50;99.90;;;;;;5057000;28;20535;-64
2023/10/19 02:19:11;;;;;;;11.90;9.60;;;8.50;99.90;;;;;;5063072;28;20552;-64
2023/10/19 02:21:40;;;;;;;9.83;8.83;;;8.50;99.90;;;;;;5062549;28;20893;-65
2023/10/19 02:24:07;;;;;;;12.87;9.77;;;8.50;99.90;;;;;;5062008;28;20496;-63
2023/10/19 02:26:37;;;;;;;11.20;9.50;;;8.50;99.90;;;;;;5063603;28;20679;-65
2023/10/19 02:29:07;;;;;;;12.07;10.83;;;8.50;99.90;;;;;;5062048;28;20523;-64
2023/10/19 02:31:37;;;;;;;10.33;9.27;;;8.50;99.90;;;;;;5062513;28;20867;-64
2023/10/19 02:34:05;;;;;;;11.33;10.13;;;8.50;99.90;;;;;;5058971;28;20489;-63
2023/10/19 02:36:34;;;;;;;11.10;9.60;;;8.50;99.90;;;;;;5062393;28;20970;-64
2023/10/19 02:39:07;;;;;;;11.67;9.67;;;8.50;99.90;;;;;;5061511;28;20469;-63
2023/10/19 02:41:36;;;;;;;12.20;10.47;;;8.50;99.90;;;;;;5064312;28;20472;-64
2023/10/19 02:44:08;;;;;;;12.80;10.53;;;8.50;99.90;;;;;;5063888;28;20486;-64
2023/10/19 02:46:39;;;;;;;10.27;9.20;;;8.50;99.90;;;;;;5084367;28;20469;-64
2023/10/19 02:49:10;;;;;;;11.67;9.23;;;8.60;99.90;;;;;;5083067;28;20522;-63
2023/10/19 02:51:39;;;;;;;11.37;9.90;;;8.60;99.90;;;;;;5079539;28;20500;-64
2023/10/19 02:54:07;;;;;;;11.73;10.63;;;8.60;99.90;;;;;;5080201;28;20564;-66
2023/10/19 02:56:37;;;;;;;12.53;9.80;;;8.60;99.90;;;;;;5063581;28;20510;-66
2023/10/19 02:59:05;;;;;;;11.23;9.63;;;8.60;99.90;;;;;;5063337;28;20846;-63
2023/10/19 03:01:34;;;;;;;11.30;10.00;;;8.60;99.90;;;;;;5061881;28;20465;-64
2023/10/19 03:04:04;;;;;;;12.60;10.00;;;8.60;99.90;;;;;;5062662;28;20489;-64
2023/10/19 03:06:32;;;;;;;10.80;9.37;;;8.60;99.90;;;;;;5083269;28;20555;-64
2023/10/19 03:09:12;;;;;;;11.10;10.00;;;8.60;99.90;;;;;;5080555;28;20491;-64
2023/10/19 03:11:40;;;;;;;12.60;9.47;;;8.60;99.90;;;;;;5079783;28;20496;-64
2023/10/19 03:14:09;;;;;;;12.27;10.03;;;8.50;99.90;;;;;;5081744;28;20497;-64
2023/10/19 03:16:36;;;;;;;11.73;10.53;;;8.50;99.90;;;;;;5083297;28;20470;-64
2023/10/19 03:19:07;;;;;;;11.23;9.80;;;8.60;99.90;;;;;;5080084;28;20840;-64
2023/10/19 03:21:42;;;;;;;11.10;9.90;;;8.60;99.90;;;;;;5082321;28;20897;-64
2023/10/19 03:24:12;;;;;;;14.40;10.67;;;8.60;99.90;;;;;;5081572;28;20580;-64
2023/10/19 03:26:43;;;;;;;11.70;10.50;;;8.60;99.90;;;;;;5081824;28;20504;-64
2023/10/19 03:29:14;;;;;;;13.70;9.90;;;8.60;99.90;;;;;;5081100;28;20483;-64
2023/10/19 03:31:45;;;;;;;13.40;10.67;;;8.70;99.90;;;;;;5081896;28;20489;-64
2023/10/19 03:34:16;;;;;;;12.63;10.63;;;8.70;99.90;;;;;;5081677;28;20489;-64
2023/10/19 03:36:45;;;;;;;11.90;10.20;;;8.70;99.90;;;;;;5080126;28;20493;-64
2023/10/19 03:39:14;;;;;;;12.70;10.60;;;8.60;99.90;;;;;;5082296;28;20468;-63
2023/10/19 03:41:44;;;;;;;12.20;9.93;;;8.60;99.90;;;;;;5081634;28;20958;-64
2023/10/19 03:44:18;;;;;;;12.00;10.63;;;8.70;99.90;;;;;;5080816;28;20496;-64
2023/10/19 03:46:55;;;;;;;12.87;9.93;;;8.70;99.90;;;;;;5081730;28;20534;-63
2023/10/19 03:49:30;;;;;;;13.37;10.90;;;8.60;99.90;;;;;;5082931;28;20468;-65
2023/10/19 03:52:03;;;;;;;13.47;10.60;;;8.60;99.90;;;;;;5079887;28;20578;-64
2023/10/19 03:54:33;;;;;;;12.33;10.33;;;8.60;99.90;;;;;;5077149;28;20492;-64
2023/10/19 03:57:06;;;;;;;13.30;10.87;;;8.60;99.90;;;;;;5081512;28;21073;-64
2023/10/19 03:59:34;;;;;;;11.57;9.97;;;8.50;99.90;;;;;;5081892;28;21034;-64
2023/10/19 04:02:09;;;;;;;10.50;9.50;;;8.50;99.90;;;;;;5081392;28;20456;-64
2023/10/19 04:04:43;;;;;;;13.47;11.40;;;8.40;99.90;;;;;;5081406;28;20472;-64
2023/10/19 04:07:18;;;;;;;12.50;10.07;;;8.40;99.90;;;;;;5081299;28;20493;-64
2023/10/19 04:09:59;;;;;;;12.70;11.40;;;8.30;99.90;;;;;;5080594;28;20518;-65
2023/10/19 04:12:30;;;;;;;14.20;10.97;;;8.30;99.90;;;;;;5081433;28;21021;-64
2023/10/19 04:15:09;;;;;;;13.77;11.30;;;8.20;99.90;;;;;;5080510;28;21008;-64
2023/10/19 04:17:38;;;;;;;11.80;10.50;;;8.20;99.90;;;;;;5081013;28;20479;-65
2023/10/19 04:20:28;;;;;;;12.63;11.33;;;8.20;99.90;;;;;;5078330;28;20564;-64
2023/10/19 04:22:57;;;;;;;13.97;11.83;;;8.20;99.90;;;;;;5082250;28;20487;-64
2023/10/19 04:25:27;;;;;;;15.47;11.47;;;8.10;99.90;;;;;;5079348;28;20507;-64
2023/10/19 04:27:56;;;;;;;15.67;10.70;;;8.10;99.90;;;;;;5080201;28;20472;-64
2023/10/19 04:30:25;;;;;;;12.93;10.87;;;8.00;99.90;;;;;;5082304;28;20819;-64
2023/10/19 04:32:57;;;;;;;12.67;11.13;;;8.00;99.90;;;;;;5080432;28;20519;-64
2023/10/19 04:35:30;;;;;;;14.03;11.43;;;8.00;99.90;;;;;;5076774;28;20508;-63
2023/10/19 04:37:59;;;;;;;13.13;11.20;;;8.00;99.90;;;;;;5080507;28;20471;-65
2023/10/19 04:40:28;;;;;;;13.83;11.87;;;8.00;99.90;;;;;;5079910;28;20472;-63
2023/10/19 04:42:56;;;;;;;15.07;11.10;;;8.00;99.90;;;;;;5079626;28;20465;-64
2023/10/19 04:45:24;;;;;;;14.50;11.23;;;8.00;99.90;;;;;;5080950;28;20945;-64
2023/10/19 04:47:54;;;;;;;12.80;10.80;;;7.90;99.90;;;;;;5080797;28;20546;-64
2023/10/19 04:50:23;;;;;;;13.03;11.40;;;7.90;99.90;;;;;;5081837;28;20600;-64
2023/10/19 04:52:52;;;;;;;12.83;10.87;;;7.90;99.90;;;;;;5078251;28;20485;-64
2023/10/19 04:55:20;;;;;;;13.07;11.00;;;7.90;99.90;;;;;;5081315;28;20731;-64
2023/10/19 04:57:48;;;;;;;12.20;10.87;;;7.80;99.90;;;;;;5080850;28;20539;-64
2023/10/19 05:00:20;;;;;;;13.77;10.67;;;7.80;99.90;;;;;;5081448;28;20515;-63
2023/10/19 05:02:51;;;;;;;13.73;12.30;;;7.80;99.90;;;;;;5075955;28;20469;-65
2023/10/19 05:05:20;;;;;;;14.17;11.60;;;7.80;99.90;;;;;;5080168;28;20481;-63
2023/10/19 05:07:48;;;;;;;14.33;10.60;;;7.80;99.90;;;;;;5080759;28;20472;-63
2023/10/19 05:10:19;;;;;;;14.40;12.47;;;7.80;99.90;;;;;;5078765;28;20465;-64
2023/10/19 05:12:47;;;;;;;12.73;11.40;;;7.80;99.90;;;;;;5080277;28;20489;-64
2023/10/19 05:15:16;;;;;;;14.17;12.53;;;7.80;99.90;;;;;;5080918;28;20480;-64
2023/10/19 05:17:45;;;;;;;14.43;11.70;;;7.80;99.90;;;;;;5081774;28;20549;-64
2023/10/19 05:20:13;;;;;;;13.07;11.27;;;7.80;99.90;;;;;;5078515;28;20501;-70
2023/10/19 05:22:41;;;;;;;17.47;13.53;;;7.80;99.90;;;;;;5081550;28;20504;-64
2023/10/19 05:25:09;;;;;;;14.93;11.73;;;7.70;99.90;;;;;;5081425;28;20849;-64
2023/10/19 05:27:42;;;;;;;15.43;11.20;;;7.70;99.90;;;;;;5079344;28;20552;-64
2023/10/19 05:30:11;;;;;;;14.53;11.83;;;7.70;99.90;;;;;;5080976;28;20476;-62
2023/10/19 05:32:39;;;;;;;15.90;12.30;;;7.70;99.90;;;;;;5079129;28;20521;-63
2023/10/19 05:35:07;;;;;;;13.73;12.07;;;7.60;99.90;;;;;;5081165;28;20481;-64
2023/10/19 05:37:35;;;;;;;13.40;10.97;;;7.60;99.90;;;;;;5079915;28;20846;-64
2023/10/19 05:40:05;;;;;;;15.60;12.80;;;7.70;99.90;;;;;;5081165;28;20473;-64
2023/10/19 05:42:34;;;;;;;14.43;12.67;;;7.70;99.90;;;;;;5080549;28;20463;-65
2023/10/19 05:45:05;;;;;;;18.73;12.20;;;7.70;99.90;;;;;;5080364;28;20488;-64
2023/10/19 05:47:33;;;;;;;13.97;11.40;;;7.60;99.90;;;;;;5081513;28;20481;-64
2023/10/19 05:50:01;;;;;;;15.47;11.70;;;7.60;99.90;;;;;;5081170;28;20972;-64
2023/10/19 05:52:29;;;;;;;16.60;13.20;;;7.60;99.90;;;;;;5084208;28;20485;-64
2023/10/19 05:54:59;;;;;;;14.73;12.50;;;7.60;99.90;;;;;;5084642;28;20488;-64
2023/10/19 05:57:27;;;;;;;13.23;11.80;;;7.60;99.90;;;;;;5084174;28;20560;-64
2023/10/19 05:59:55;;;;;;;13.47;12.07;;;7.60;99.90;;;;;;5084356;28;20504;-63
2023/10/19 06:02:25;;;;;;;14.90;11.93;;;7.60;99.90;;;;;;5084470;28;20493;-64
2023/10/19 06:05:00;;;;;;;15.80;12.27;;;7.60;99.90;;;;;;5085177;28;20559;-64
2023/10/19 06:07:28;;;;;;;13.40;11.97;;;7.60;99.90;;;;;;5084124;28;20479;-64
2023/10/19 06:09:56;;;;;;;15.80;11.90;;;7.60;99.90;;;;;;5083001;28;20468;-64
2023/10/19 06:12:25;;;;;;;15.37;12.50;;;7.60;99.90;;;;;;5083624;28;20480;-63
2023/10/19 06:14:52;;;;;;;13.67;12.00;;;7.60;99.90;;;;;;5084432;28;20662;-64
2023/10/19 06:17:21;;;;;;;14.47;11.90;;;7.60;99.90;;;;;;5081521;28;21185;-64
2023/10/19 06:19:50;;;;;;;14.40;12.53;;;7.60;99.90;;;;;;5080812;28;20880;-64
2023/10/19 06:22:18;;;;;;;14.10;12.53;;;7.60;99.90;;;;;;5082614;28;20548;-64
2023/10/19 06:24:46;;;;;;;16.63;11.40;;;7.50;99.90;;;;;;5082926;28;20477;-64
2023/10/19 06:27:14;;;;;;;16.30;12.87;;;7.60;99.90;;;;;;5085052;28;20553;-64
2023/10/19 06:29:43;;;;;;;14.37;11.77;;;7.60;99.90;;;;;;5084556;28;20568;-64
2023/10/19 06:32:13;;;;;;;13.93;11.63;;;7.60;99.90;;;;;;5084444;28;20469;-64
2023/10/19 06:34:41;;;;;;;13.80;12.40;;;7.50;99.90;;;;;;5081320;28;20541;-63
2023/10/19 06:37:11;;;;;;;15.50;13.30;;;7.50;99.90;;;;;;5082525;28;20642;-66
2023/10/19 06:39:41;;;;;;;14.83;12.80;;;7.50;99.90;;;;;;5083868;28;20464;-64
2023/10/19 06:42:13;;;;;;;14.70;12.00;;;7.50;99.90;;;;;;5085369;28;20504;-63
2023/10/19 06:44:43;;;;;;;15.17;11.80;;;7.50;99.90;;;;;;5083300;28;20497;-64
2023/10/19 06:47:12;;;;;;;15.00;12.57;;;7.60;99.90;;;;;;5083628;28;20589;-64
2023/10/19 06:49:41;;;;;;;13.20;11.77;;;7.60;99.90;;;;;;5083951;28;20498;-64
2023/10/19 06:52:11;;;;;;;15.00;12.47;;;7.60;99.90;;;;;;5083400;28;20528;-64
2023/10/19 06:54:40;;;;;;;16.60;13.23;;;7.60;99.90;;;;;;5081734;28;20490;-64
2023/10/19 06:57:08;;;;;;;14.17;12.53;;;7.60;99.90;;;;;;5084638;28;20482;-64
2023/10/19 06:59:37;;;;;;;13.90;12.40;;;7.60;99.90;;;;;;5082531;28;21049;-63
2023/10/19 07:02:07;;;;;;;15.47;12.10;;;7.60;99.90;;;;;;5084045;28;20548;-66
2023/10/19 07:04:36;;;;;;;14.60;11.93;;;7.50;99.90;;;;;;5081336;28;20529;-63
2023/10/19 07:07:04;;;;;;;15.20;12.90;;;7.50;99.90;;;;;;5081572;28;20876;-63
2023/10/19 07:09:34;;;;;;;14.20;11.63;;;7.50;99.90;;;;;;5081975;28;20473;-64
2023/10/19 07:12:04;;;;;;;15.23;11.57;;;7.60;99.90;;;;;;5081660;28;20472;-65
2023/10/19 07:14:33;;;;;;;15.47;12.10;;;7.60;99.90;;;;;;5082293;28;20900;-64
2023/10/19 07:17:01;;;;;;;16.10;12.20;;;7.60;99.90;;;;;;5084829;28;20805;-64
2023/10/19 07:19:30;;;;;;;15.30;12.50;;;7.60;99.90;;;;;;5082363;28;20895;-63
2023/10/19 07:21:58;;;;;;;16.47;12.67;;;7.60;99.90;;;;;;5073023;28;20465;-64
2023/10/19 07:24:26;;;;;;;14.70;11.90;;;7.60;99.90;;;;;;5081025;28;20511;-67
2023/10/19 07:27:04;;;;;;;14.80;13.00;;;7.60;99.90;;;;;;5082117;28;20469;-64
2023/10/19 07:29:35;;;;;;;15.30;12.90;;;7.60;99.90;;;;;;5082004;28;20464;-64
2023/10/19 07:32:04;;;;;;;14.57;12.63;;;7.70;99.90;;;;;;5084504;28;20461;-63
2023/10/19 07:34:33;;;;;;;14.70;12.20;;;7.70;99.90;;;;;;5082483;28;20484;-62
2023/10/19 07:37:03;;;;;;;14.30;11.97;;;7.70;99.90;;;;;;5082165;28;20461;-64
2023/10/19 07:39:33;;;;;;;15.57;12.50;;;7.70;99.90;;;;;;5078580;28;20468;-64
2023/10/19 07:42:01;;;;;;;13.57;12.17;;;7.70;99.90;;;;;;5082363;28;20495;-64
2023/10/19 07:44:30;;;;;;;15.10;13.03;;;7.70;99.90;;;;;;5081892;28;20496;-65
2023/10/19 07:46:59;;;;;;;14.13;12.53;;;7.60;99.90;;;;;;5081553;28;22424;-64
2023/10/19 07:49:28;;;;;;;16.40;13.27;;;7.70;99.90;;;;;;5082542;28;20496;-64
2023/10/19 07:51:57;;;;;;;15.90;11.53;;;7.70;99.90;;;;;;5080265;28;20673;-65
2023/10/19 07:54:27;;;;;;;14.00;11.57;;;7.70;99.90;;;;;;5080943;28;20481;-64
2023/10/19 07:56:57;;;;;;;15.17;12.67;;;7.70;99.90;;;;;;5079383;28;20478;-65
2023/10/19 07:59:25;;;;;;;17.60;13.07;;;7.70;99.90;;;;;;5081154;28;20468;-64
2023/10/19 08:01:53;;;;;;;14.17;12.43;;;7.70;99.90;;;;;;5080887;28;20528;-64
2023/10/19 08:04:25;;;;;;;15.50;13.17;;;7.70;99.90;;;;;;5081010;28;20480;-64
2023/10/19 08:06:53;;;;;;;15.43;12.37;;;7.70;99.90;;;;;;5082814;28;20908;-64
2023/10/19 08:09:23;;;;;;;14.77;13.10;;;7.70;99.90;;;;;;5081360;28;20476;-67
2023/10/19 08:11:55;;;;;;;14.30;12.80;;;7.70;99.90;;;;;;5081291;28;20568;-64
2023/10/19 08:14:24;;;;;;;14.60;13.00;;;7.70;99.90;;;;;;5077374;28;20471;-64
2023/10/19 08:16:53;;;;;;;14.83;12.40;;;7.80;99.90;;;;;;5080141;28;20473;-62
2023/10/19 08:19:21;;;;;;;16.07;12.80;;;7.80;99.90;;;;;;5082242;28;20472;-64
2023/10/19 08:21:50;;;;;;;15.63;13.43;;;7.80;99.90;;;;;;5082922;28;20551;-64
2023/10/19 08:24:20;;;;;;;19.03;13.10;;;7.70;99.90;;;;;;5081379;28;20580;-64
2023/10/19 08:26:48;;;;;;;15.20;13.60;;;7.70;99.90;;;;;;5080861;28;20460;-64
2023/10/19 08:29:19;;;;;;;16.07;12.40;;;7.70;99.90;;;;;;5082595;28;20497;-63
2023/10/19 08:31:47;;;;;;;15.03;11.70;;;7.70;99.90;;;;;;5083256;28;20964;-64
2023/10/19 08:34:15;;;;;;;17.30;13.20;;;7.70;99.90;;;;;;5081096;28;20884;-64
2023/10/19 08:36:43;;;;;;;15.33;13.40;;;7.80;99.90;;;;;;5081344;28;20551;-70
2023/10/19 08:39:13;;;;;;;15.30;13.17;;;7.80;99.90;;;;;;5079289;28;20533;-64
2023/10/19 08:41:43;;;;;;;14.10;12.60;;;7.80;99.90;;;;;;5082880;28;20532;-65
2023/10/19 08:44:11;;;;;;;17.03;14.00;;;7.80;99.90;;;;;;5079927;28;20516;-64
2023/10/19 08:46:43;;;;;;;17.37;14.63;;;7.80;99.90;;;;;;5082862;28;20536;-65
2023/10/19 08:49:12;;;;;;;17.90;12.47;;;7.80;99.90;;;;;;5080128;28;20519;-63
2023/10/19 08:51:44;;;;;;;17.83;13.93;;;7.80;99.90;;;;;;5081681;28;20469;-64
2023/10/19 08:54:15;;;;;;;17.30;13.47;;;7.80;99.90;;;;;;5079664;28;20498;-63
2023/10/19 08:56:44;;;;;;;18.53;13.60;;;7.80;99.90;;;;;;5078507;28;20854;-63
2023/10/19 08:59:12;;;;;;;16.13;12.53;;;7.80;99.90;;;;;;5080591;28;20811;-64
2023/10/19 09:01:43;;;;;;;15.17;13.57;;;7.80;99.90;;;;;;5074631;28;20559;-64
2023/10/19 09:04:11;;;;;;;15.33;13.73;;;7.80;99.90;;;;;;5080627;28;20489;-64
2023/10/19 09:06:42;;;;;;;15.03;12.77;;;7.80;99.90;;;;;;5080904;28;20515;-63
2023/10/19 09:09:16;;;;;;;17.80;14.00;;;7.80;99.90;;;;;;5080827;28;20542;-64
2023/10/19 09:11:46;;;;;;;18.33;14.63;;;7.80;99.90;;;;;;5074802;28;20484;-64
2023/10/19 09:14:14;;;;;;;18.13;15.10;;;7.80;99.90;;;;;;5079988;28;20579;-64
2023/10/19 09:16:56;;;;;;;18.50;14.50;;;7.80;99.90;;;;;;5081379;28;21114;-64
2023/10/19 09:19:40;;;;;;;16.10;13.80;;;7.80;99.90;;;;;;5078322;28;20465;-64
2023/10/19 09:22:16;;;;;;;17.10;13.60;;;7.80;99.90;;;;;;5080473;28;20894;-64
2023/10/19 09:24:45;;;;;;;17.00;13.90;;;7.90;99.90;;;;;;5077384;28;20489;-64
2023/10/19 09:27:18;;;;;;;18.40;14.60;;;7.80;99.90;;;;;;5082400;28;20462;-64
2023/10/19 09:29:46;;;;;;;17.13;14.70;;;7.80;99.90;;;;;;5087674;28;20886;-64
2023/10/19 09:32:14;;;;;;;19.67;15.00;;;7.90;99.90;;;;;;5084873;28;20507;-64
2023/10/19 09:34:47;;;;;;;19.20;14.50;;;7.90;99.90;;;;;;5082980;28;20481;-63
2023/10/19 09:37:17;;;;;;;17.10;13.77;;;7.90;99.90;;;;;;5083769;28;20842;-64
2023/10/19 09:39:45;;;;;;;16.67;14.70;;;7.80;99.90;;;;;;5082637;28;20810;-64
2023/10/19 09:42:17;;;;;;;17.50;15.07;;;7.80;99.90;;;;;;5083680;28;20477;-64
2023/10/19 09:44:48;;;;;;;17.70;14.67;;;7.80;99.90;;;;;;5085135;28;20554;-64
2023/10/19 09:47:27;;;;;;;18.03;15.83;;;7.80;99.90;;;;;;5084887;28;20511;-64
2023/10/19 09:49:56;;;;;;;16.03;13.50;;;7.80;99.90;;;;;;5083604;28;20494;-63
2023/10/19 09:52:26;;;;;;;17.50;14.83;;;7.80;99.90;;;;;;5084503;28;20465;-64
2023/10/19 09:55:01;;;;;;;15.27;13.60;;;7.80;99.90;;;;;;5081427;28;20493;-63
2023/10/19 09:57:36;;;;;;;15.67;13.87;;;7.80;99.90;;;;;;5082755;28;21064;-63
2023/10/19 10:00:11;;;;;;;15.80;13.40;;;7.80;99.90;;;;;;5085325;28;20468;-64
2023/10/19 10:02:41;;;;;;;16.40;14.77;;;7.80;99.90;;;;;;5082774;28;20469;-62
2023/10/19 10:05:42;;;;;;;17.13;14.20;;;7.80;99.90;;;;;;5083509;28;20482;-64
2023/10/19 10:08:33;;;;;;;15.67;14.00;;;7.80;99.90;;;;;;5084865;28;20473;-64
2023/10/19 10:11:18;;;;;;;16.80;14.40;;;7.80;99.90;;;;;;5081819;28;20464;-64
2023/10/19 10:13:51;;;;;;;17.43;15.07;;;7.80;99.90;;;;;;5085336;28;20831;-64
2023/10/19 10:16:22;;;;;;;16.20;13.93;;;7.80;99.90;;;;;;5082566;28;20854;-65
2023/10/19 10:18:51;;;;;;;17.37;15.20;;;7.80;99.90;;;;;;5083554;28;20469;-63
2023/10/19 10:21:21;;;;;;;17.63;15.03;;;7.80;99.90;;;;;;5082300;28;20703;-64
2023/10/19 10:23:52;;;;;;;16.07;14.37;;;7.80;99.90;;;;;;5083837;28;20461;-64
2023/10/19 10:26:24;;;;;;;15.07;13.03;;;7.80;99.90;;;;;;5081564;28;20570;-64
2023/10/19 10:29:14;;;;;;;16.13;13.70;;;7.80;99.90;;;;;;5083398;28;20492;-64
2023/10/19 10:31:43;;;;;;;15.87;14.03;;;7.90;99.90;;;;;;5083259;28;20473;-64
2023/10/19 10:34:12;;;;;;;17.00;13.97;;;7.90;99.90;;;;;;5081433;28;20858;-64
2023/10/19 10:37:02;;;;;;;16.30;13.80;;;7.90;99.90;;;;;;5085103;28;21154;-64
2023/10/19 10:39:31;;;;;;;16.73;13.90;;;7.90;99.90;;;;;;5081911;28;20466;-63
2023/10/19 10:42:00;;;;;;;17.73;14.40;;;7.90;99.90;;;;;;5083266;28;20518;-64
2023/10/19 10:44:39;;;;;;;15.87;14.10;;;7.90;99.90;;;;;;5081119;28;20893;-64
2023/10/19 10:47:09;;;;;;;14.67;13.17;;;7.90;99.90;;;;;;5083439;28;20464;-63
2023/10/19 10:49:51;;;;;;;15.57;13.93;;;7.80;99.90;;;;;;5081048;28;20465;-64
2023/10/19 10:52:26;;;;;;;16.70;14.50;;;7.80;99.90;;;;;;5083867;28;20469;-64
2023/10/19 10:54:55;;;;;;;17.13;13.83;;;7.90;99.90;;;;;;5082508;28;21025;-62
2023/10/19 10:57:23;;;;;;;16.00;13.70;;;7.90;99.90;;;;;;5084356;28;20978;-64
2023/10/19 11:00:04;;;;;;;14.73;13.23;;;7.90;99.90;;;;;;5071400;28;21003;-64
2023/10/19 11:02:34;;;;;;;16.33;13.60;;;7.90;99.90;;;;;;5083068;28;20473;-64
2023/10/19 11:05:02;;;;;;;15.23;13.07;;;7.90;99.90;;;;;;5082474;28;20988;-64
2023/10/19 11:07:31;;;;;;;17.50;13.83;;;7.90;99.90;;;;;;5083484;28;20995;-64
2023/10/19 11:10:01;;;;;;;15.90;14.30;;;7.90;99.90;;;;;;5082348;28;20496;-64
2023/10/19 11:12:30;;;;;;;16.90;13.80;;;7.90;99.90;;;;;;5084042;28;20483;-65
2023/10/19 11:14:59;;;;;;;16.00;14.30;;;8.00;99.90;;;;;;5082386;28;20893;-64
2023/10/19 11:17:31;;;;;;;16.93;14.83;;;8.00;99.90;;;;;;5081077;28;20476;-64
2023/10/19 11:20:00;;;;;;;16.40;14.40;;;8.00;99.90;;;;;;5082785;28;20837;-64
2023/10/19 11:22:28;;;;;;;16.90;14.60;;;8.00;99.90;;;;;;5083064;28;20491;-64
2023/10/19 11:24:56;;;;;;;17.00;14.17;;;8.00;99.90;;;;;;5082412;28;21068;-64
2023/10/19 11:27:28;;;;;;;16.20;14.47;;;8.00;99.90;;;;;;5081255;28;20468;-65
2023/10/19 11:29:57;;;;;;;18.13;14.60;;;8.00;99.90;;;;;;5077963;28;20479;-64
2023/10/19 11:32:26;;;;;;;18.17;15.50;;;8.00;99.90;;;;;;5080925;28;20560;-64
2023/10/19 11:34:56;;;;;;;17.00;14.73;;;8.00;99.90;;;;;;5081973;28;20481;-64
2023/10/19 11:37:24;;;;;;;17.00;15.20;;;8.00;99.90;;;;;;5083059;28;20536;-64
2023/10/19 11:39:52;;;;;;;16.87;15.07;;;8.00;99.90;;;;;;5082897;28;20553;-63
2023/10/19 11:42:20;;;;;;;16.27;14.50;;;8.00;99.90;;;;;;5084674;28;20472;-65
2023/10/19 11:44:48;;;;;;;16.67;14.97;;;8.00;99.90;;;;;;5080305;28;20499;-65
2023/10/19 11:47:16;;;;;;;21.10;15.30;;;8.00;99.90;;;;;;5083805;28;20559;-62
2023/10/19 11:49:44;;;;;;;16.60;14.67;;;8.00;99.90;;;;;;5081296;28;20473;-65
2023/10/19 11:52:14;;;;;;;16.73;14.60;;;8.00;99.90;;;;;;5081546;28;21076;-65
2023/10/19 11:54:42;;;;;;;16.77;14.50;;;8.00;99.90;;;;;;5077435;28;20469;-64
2023/10/19 11:57:12;;;;;;;16.20;14.50;;;8.00;99.90;;;;;;5066151;28;20539;-64
2023/10/19 11:59:40;;;;;;;16.73;14.73;;;8.00;99.90;;;;;;5065822;28;20505;-64
2023/10/19 12:02:09;;;;;;;18.10;14.20;;;8.00;99.90;;;;;;5067166;28;20548;-63
2023/10/19 12:04:37;;;;;;;17.17;15.37;;;8.00;99.90;;;;;;5072898;28;20910;-64
2023/10/19 12:07:06;;;;;;;15.63;14.00;;;8.00;99.90;;;;;;5083118;28;20461;-64
2023/10/19 12:09:35;;;;;;;15.00;13.47;;;8.00;99.90;;;;;;5081049;28;20612;-63
2023/10/19 12:12:05;;;;;;;15.77;14.03;;;8.00;99.90;;;;;;5081946;28;20465;-63
2023/10/19 12:14:34;;;;;;;15.07;13.53;;;8.00;99.90;;;;;;5081673;28;20516;-63
2023/10/19 12:17:03;;;;;;;16.10;14.40;;;8.00;99.90;;;;;;5078173;28;20520;-64
2023/10/19 12:19:31;;;;;;;15.97;14.27;;;8.00;99.90;;;;;;5080717;28;20476;-64
2023/10/19 12:22:02;;;;;;;16.27;13.73;;;8.00;99.90;;;;;;5081538;28;20521;-64
2023/10/19 12:24:30;;;;;;;15.47;13.73;;;8.00;99.90;;;;;;5081398;28;20509;-65
2023/10/19 12:27:00;;;;;;;14.40;12.90;;;8.10;99.90;;;;;;5073513;28;20521;-63
2023/10/19 12:29:28;;;;;;;16.20;14.50;;;8.00;99.90;;;;;;5080328;28;20551;-64
2023/10/19 12:31:56;;;;;;;16.00;13.70;;;8.10;99.90;;;;;;5081609;28;20529;-64
2023/10/19 12:34:24;;;;;;;17.37;14.57;;;8.10;99.90;;;;;;5080209;28;20480;-64
2023/10/19 12:36:55;;;;;;;15.90;14.10;;;8.10;99.90;;;;;;5079298;28;20552;-64
2023/10/19 12:39:39;;;;;;;15.70;13.20;;;8.10;99.90;;;;;;5081725;28;21040;-64
2023/10/19 12:42:09;;;;;;;15.40;13.60;;;8.10;99.90;;;;;;5079648;28;20910;-65
2023/10/19 12:44:41;;;;;;;14.97;13.47;;;8.10;99.90;;;;;;5079784;28;20508;-64
2023/10/19 12:47:12;;;;;;;14.67;13.10;;;8.10;99.90;;;;;;5081148;28;20970;-64
2023/10/19 12:49:41;;;;;;;15.13;13.53;;;8.10;99.90;;;;;;5079226;28;20477;-64
2023/10/19 12:52:10;;;;;;;14.53;12.87;;;8.10;99.90;;;;;;5081720;28;20859;-67
2023/10/19 12:54:39;;;;;;;15.90;14.20;;;8.10;99.90;;;;;;5078985;28;20490;-64
2023/10/19 12:57:07;;;;;;;14.20;12.70;;;8.20;99.90;;;;;;5079608;28;21017;-64
2023/10/19 12:59:38;;;;;;;15.03;13.23;;;8.20;99.90;;;;;;5078166;28;20493;-64